Time;durP1;ratioP1;P1;durP2;ratioP2;P2;SDS_P1;SDS_P2;PMS_P1;PMS_P2;Temp;Humidity;BMP_temperature;BMP_pressure;BME280_temperature;BME280_humidity;BME280_pressure;Samples;Min_cycle;Max_cycle;Signal;HPM_P1;HPM_P2
2021/07/15 00:00:02;;;;;;;20.25;11.85;;;;;;;25.00;62.71;99846.92;1553565;92;21111;-80
2021/07/15 00:02:29;;;;;;;17.75;10.53;;;;;;;24.96;62.57;99838.51;1553771;92;21190;-80
2021/07/15 00:04:55;;;;;;;14.43;12.35;;;;;;;24.94;62.44;99839.83;1553738;92;21582;-80
2021/07/15 00:07:21;;;;;;;15.20;11.03;;;;;;;24.90;62.56;99838.19;1553623;92;21066;-80
2021/07/15 00:09:49;;;;;;;13.40;10.85;;;;;;;24.89;62.89;99834.39;1553558;92;21047;-80
2021/07/15 00:12:16;;;;;;;13.22;10.18;;;;;;;24.87;63.11;99831.13;1555784;90;21067;-80
2021/07/15 00:14:44;;;;;;;13.95;10.43;;;;;;;24.86;63.19;99828.95;1582550;91;21619;-80
2021/07/15 00:17:11;;;;;;;14.60;11.73;;;;;;;24.85;63.04;99826.49;1582021;90;21527;-79
2021/07/15 00:19:37;;;;;;;18.25;12.25;;;;;;;24.85;62.94;99834.61;1582037;90;21097;-80
2021/07/15 00:22:04;;;;;;;12.45;11.12;;;;;;;24.84;62.91;99846.52;1581994;91;21040;-80
2021/07/15 00:24:31;;;;;;;18.20;12.73;;;;;;;24.82;62.95;99854.07;1582753;91;21555;-79
2021/07/15 00:26:57;;;;;;;17.50;10.48;;;;;;;24.80;62.95;99845.38;1581990;89;21430;-79
2021/07/15 00:29:24;;;;;;;13.55;10.78;;;;;;;24.78;63.33;99848.89;1582497;91;21080;-80
2021/07/15 00:31:50;;;;;;;13.08;10.60;;;;;;;24.78;63.33;99864.59;1582833;91;21092;-79
2021/07/15 00:34:16;;;;;;;16.57;10.48;;;;;;;24.80;63.36;99861.11;1582569;91;21021;-79
2021/07/15 00:36:43;;;;;;;15.68;11.20;;;;;;;24.81;63.23;99867.33;1582393;91;21112;-79
2021/07/15 00:39:09;;;;;;;14.98;12.28;;;;;;;24.80;63.24;99863.81;1582513;91;21060;-80
2021/07/15 00:41:35;;;;;;;14.93;11.55;;;;;;;24.79;63.15;99868.92;1582737;91;21032;-80
2021/07/15 00:44:03;;;;;;;11.88;10.78;;;;;;;24.76;63.06;99863.48;1582480;90;21076;-80
2021/07/15 00:46:29;;;;;;;20.65;11.85;;;;;;;24.76;63.21;99855.91;1582787;90;21083;-79
2021/07/15 00:48:55;;;;;;;15.08;11.20;;;;;;;24.76;63.40;99855.36;1582625;90;21013;-80
2021/07/15 00:51:22;;;;;;;20.23;11.70;;;;;;;24.80;63.45;99862.97;1582608;90;21567;-79
2021/07/15 00:53:49;;;;;;;13.43;10.95;;;;;;;24.81;63.51;99857.31;1581905;90;21069;-80
2021/07/15 00:56:16;;;;;;;12.70;10.60;;;;;;;24.84;63.34;99852.74;1582398;91;21112;-82
2021/07/15 00:58:42;;;;;;;17.27;11.80;;;;;;;24.85;63.41;99846.79;1582377;91;21025;-79
2021/07/15 01:01:09;;;;;;;15.80;11.88;;;;;;;24.86;63.49;99849.77;1582341;91;21048;-80
2021/07/15 01:03:36;;;;;;;12.47;11.03;;;;;;;24.85;63.51;99846.25;1582499;90;21148;-79
2021/07/15 01:06:03;;;;;;;14.60;11.40;;;;;;;24.83;64.16;99834.04;1582431;91;21523;-81
2021/07/15 01:08:29;;;;;;;16.95;12.33;;;;;;;24.83;64.47;99840.80;1582686;90;21060;-81
2021/07/15 01:11:09;;;;;;;18.02;12.30;;;;;;;24.84;64.83;99841.11;1582754;91;21059;-79
2021/07/15 01:13:58;;;;;;;14.05;12.28;;;;;;;24.84;64.79;99840.56;1582954;90;21532;-79
2021/07/15 01:16:52;;;;;;;15.50;12.35;;;;;;;24.85;64.36;99846.25;1568891;91;21108;-79
2021/07/15 01:19:54;;;;;;;12.20;10.95;;;;;;;24.85;64.37;99852.20;1582366;91;21146;-79
2021/07/15 01:22:31;;;;;;;13.05;11.78;;;;;;;24.83;64.36;99848.41;1582660;90;21566;-79
2021/07/15 01:25:25;;;;;;;15.28;11.10;;;;;;;24.82;64.48;99848.11;1567240;91;21028;-79
2021/07/15 01:28:06;;;;;;;15.48;12.55;;;;;;;24.83;64.48;99843.52;1583802;89;21792;-79
2021/07/15 01:30:43;;;;;;;11.78;10.53;;;;;;;24.85;64.24;99842.19;1606732;88;22340;-79
2021/07/15 01:33:26;;;;;;;17.75;12.50;;;;;;;24.86;64.07;99843.84;1584743;88;21082;-79
2021/07/15 01:36:00;;;;;;;15.00;11.88;;;;;;;24.86;64.33;99842.48;1577002;91;21082;-81
2021/07/15 01:38:53;;;;;;;12.85;11.60;;;;;;;24.84;64.48;99842.45;1576868;91;21598;-82
2021/07/15 01:41:27;;;;;;;14.07;11.63;;;;;;;24.81;64.81;99844.33;1576463;91;21621;-81
2021/07/15 01:44:03;;;;;;;13.25;11.25;;;;;;;24.70;65.85;99840.69;1577024;91;21079;-81
2021/07/15 01:46:29;;;;;;;15.03;12.80;;;;;;;24.58;66.60;99846.80;1577016;91;22262;-81
2021/07/15 01:48:55;;;;;;;14.93;10.85;;;;;;;24.54;66.36;99843.76;1576739;91;21106;-83
2021/07/15 01:51:22;;;;;;;20.95;11.53;;;;;;;24.54;66.50;99846.46;1577286;91;21159;-81
2021/07/15 01:53:52;;;;;;;14.85;11.43;;;;;;;24.50;66.66;99842.09;1559750;91;21020;-82
2021/07/15 01:56:18;;;;;;;13.08;11.70;;;;;;;24.48;66.91;99833.95;1577256;91;21585;-82
2021/07/15 01:58:47;;;;;;;19.55;11.90;;;;;;;24.44;67.55;99835.55;1577276;91;21109;-80
2021/07/15 02:01:14;;;;;;;15.78;11.05;;;;;;;24.41;67.70;99825.20;1577391;91;21071;-83
2021/07/15 02:03:45;;;;;;;20.10;11.35;;;;;;;24.34;68.18;99824.06;1577429;91;21039;-80
2021/07/15 02:06:13;;;;;;;13.88;12.00;;;;;;;24.32;68.06;99822.94;1577331;91;21075;-80
2021/07/15 02:08:43;;;;;;;18.45;13.58;;;;;;;24.27;68.55;99817.47;1577214;91;21064;-80
2021/07/15 02:11:11;;;;;;;19.12;12.07;;;;;;;24.19;68.44;99829.27;1577273;91;21050;-80
2021/07/15 02:13:38;;;;;;;16.42;12.80;;;;;;;24.17;68.38;99838.99;1577127;91;21086;-80
2021/07/15 02:16:06;;;;;;;16.82;13.00;;;;;;;24.17;68.13;99833.59;1576528;90;21043;-80
2021/07/15 02:18:33;;;;;;;14.07;10.82;;;;;;;24.19;67.97;99836.83;1612497;88;21113;-81
2021/07/15 02:21:01;;;;;;;18.05;13.30;;;;;;;24.18;67.66;99835.21;1627177;88;21056;-81
2021/07/15 02:23:29;;;;;;;14.03;12.50;;;;;;;24.16;67.65;99836.53;1632848;88;21548;-81
2021/07/15 02:25:57;;;;;;;16.85;11.93;;;;;;;24.14;67.49;99840.01;1632482;88;21089;-81
2021/07/15 02:28:26;;;;;;;18.12;12.55;;;;;;;24.11;67.49;99848.11;1626143;88;21556;-78
2021/07/15 02:31:06;;;;;;;12.98;11.25;;;;;;;24.09;67.73;99846.19;1625551;88;21110;-80
2021/07/15 02:33:34;;;;;;;15.13;11.93;;;;;;;24.07;67.79;99846.95;1625200;88;21011;-81
2021/07/15 02:36:04;;;;;;;15.70;11.93;;;;;;;24.08;67.52;99851.28;1625334;88;21031;-80
2021/07/15 02:38:33;;;;;;;15.60;12.53;;;;;;;24.04;67.37;99857.73;1625835;88;21054;-80
2021/07/15 02:41:01;;;;;;;18.23;12.43;;;;;;;24.02;67.39;99853.64;1625703;88;21014;-80
2021/07/15 02:43:28;;;;;;;15.08;12.90;;;;;;;23.99;67.75;99864.41;1625865;88;21089;-81
2021/07/15 02:45:54;;;;;;;14.93;12.20;;;;;;;23.97;67.80;99864.41;1625428;88;21079;-81
2021/07/15 02:48:21;;;;;;;13.85;12.40;;;;;;;23.96;67.89;99867.62;1625700;88;21144;-82
2021/07/15 02:50:47;;;;;;;17.45;12.40;;;;;;;23.96;67.63;99873.56;1625686;88;21342;-82
2021/07/15 02:53:14;;;;;;;20.45;12.23;;;;;;;23.97;67.63;99871.16;1625956;88;21005;-82
2021/07/15 02:55:45;;;;;;;17.02;12.35;;;;;;;23.96;67.55;99865.45;1625790;88;20983;-82
2021/07/15 02:58:26;;;;;;;18.75;13.20;;;;;;;23.94;67.51;99866.23;1625123;88;21629;-82
2021/07/15 03:00:59;;;;;;;16.02;12.15;;;;;;;23.92;67.93;99867.84;1624733;88;21058;-81
2021/07/15 03:04:01;;;;;;;16.85;11.65;;;;;;;23.92;68.03;99861.63;1625865;88;21493;-82
2021/07/15 03:06:40;;;;;;;18.62;13.13;;;;;;;23.91;67.95;99858.63;1615193;88;21054;-81
2021/07/15 03:09:16;;;;;;;20.90;12.25;;;;;;;23.87;67.70;99849.66;1625536;88;21125;-80
2021/07/15 03:12:11;;;;;;;19.57;12.78;;;;;;;23.82;67.62;99846.07;1623347;88;21520;-80
2021/07/15 03:14:42;;;;;;;15.90;13.25;;;;;;;23.80;67.90;99838.77;1573115;90;21037;-81
2021/07/15 03:17:12;;;;;;;13.95;12.35;;;;;;;23.78;67.96;99839.00;1572830;91;21097;-81
2021/07/15 03:19:46;;;;;;;14.93;11.78;;;;;;;23.75;68.08;99831.94;1573159;91;21556;-79
2021/07/15 03:22:13;;;;;;;18.65;12.05;;;;;;;23.74;68.01;99847.34;1572924;91;21041;-80
2021/07/15 03:24:52;;;;;;;15.38;13.22;;;;;;;23.72;68.02;99848.11;1573121;91;21026;-84
2021/07/15 03:27:20;;;;;;;14.18;12.80;;;;;;;23.67;68.37;99845.30;1572730;91;21677;-81
2021/07/15 03:29:48;;;;;;;19.10;12.18;;;;;;;23.66;68.56;99847.72;1578629;90;21088;-82
2021/07/15 03:32:16;;;;;;;17.20;12.55;;;;;;;23.68;68.66;99855.05;1585841;90;21062;-82
2021/07/15 03:34:44;;;;;;;21.33;13.80;;;;;;;23.72;68.63;99861.62;1586046;90;21011;-81
2021/07/15 03:37:10;;;;;;;18.75;13.35;;;;;;;23.77;68.30;99866.29;1585788;90;21077;-80
2021/07/15 03:39:38;;;;;;;16.27;13.18;;;;;;;23.82;67.96;99864.48;1586067;90;21047;-80
2021/07/15 03:42:05;;;;;;;17.95;13.58;;;;;;;23.85;67.63;99869.38;1585891;90;21067;-81
2021/07/15 03:44:32;;;;;;;18.98;13.28;;;;;;;23.86;67.52;99854.80;1588882;87;21083;-80
2021/07/15 03:46:59;;;;;;;15.48;12.95;;;;;;;23.88;67.75;99850.51;1640412;87;21035;-80
2021/07/15 03:49:28;;;;;;;21.93;13.98;;;;;;;23.91;67.76;99855.92;1640705;87;21027;-80
2021/07/15 03:51:54;;;;;;;20.95;12.23;;;;;;;23.95;67.75;99858.42;1640420;87;21110;-80
2021/07/15 03:54:23;;;;;;;18.00;13.05;;;;;;;23.97;67.60;99861.17;1640840;87;21471;-81
2021/07/15 03:56:52;;;;;;;17.57;14.23;;;;;;;24.00;67.39;99860.66;1640671;87;21566;-78
2021/07/15 03:59:20;;;;;;;21.45;14.35;;;;;;;24.05;67.19;99862.60;1640633;87;21062;-83
2021/07/15 04:01:51;;;;;;;16.32;13.35;;;;;;;24.12;67.09;99860.55;1640807;87;20992;-83
2021/07/15 04:04:19;;;;;;;23.00;14.23;;;;;;;24.18;67.17;99870.36;1639133;87;21019;-82
2021/07/15 04:06:47;;;;;;;16.62;11.88;;;;;;;24.28;67.04;99885.88;1628433;87;21022;-82
2021/07/15 04:09:14;;;;;;;14.20;12.75;;;;;;;24.33;66.69;99885.41;1612867;89;21083;-82
2021/07/15 04:11:44;;;;;;;16.37;12.82;;;;;;;24.46;66.53;99882.09;1613129;89;21027;-82
2021/07/15 04:14:16;;;;;;;27.55;13.60;;;;;;;24.57;66.28;99867.62;1613073;88;21637;-82
2021/07/15 04:17:05;;;;;;;20.10;12.93;;;;;;;24.67;66.26;99875.84;1613078;88;21079;-80
2021/07/15 04:19:35;;;;;;;16.97;13.48;;;;;;;24.78;65.49;99882.18;1612897;88;21068;-80
2021/07/15 04:22:05;;;;;;;18.82;12.47;;;;;;;24.91;65.13;99890.42;1610993;89;21028;-80
2021/07/15 04:24:31;;;;;;;;;;;;;;;25.02;65.10;99900.28;1615405;88;21496;-82
2021/07/15 04:27:00;;;;;;;27.45;12.75;;;;;;;25.14;64.94;99907.73;1612790;89;20213;-79
2021/07/15 04:29:28;;;;;;;23.47;12.95;;;;;;;25.28;64.81;99905.42;1609428;89;21068;-80
2021/07/15 04:32:42;;;;;;;16.27;12.75;;;;;;;25.45;64.26;99908.02;1588419;90;21088;-76
2021/07/15 04:35:11;;;;;;;15.13;12.98;;;;;;;25.59;63.68;99928.17;1588262;90;21038;-80
2021/07/15 04:37:40;;;;;;;23.00;14.23;;;;;;;25.68;63.05;99933.94;1588589;90;21078;-79
2021/07/15 04:40:10;;;;;;;24.82;14.05;;;;;;;25.69;62.55;99945.04;1588194;90;21034;-80
2021/07/15 04:42:39;;;;;;;22.85;13.80;;;;;;;25.68;62.42;99949.38;1588576;90;21039;-79
2021/07/15 04:45:09;;;;;;;19.75;14.33;;;;;;;25.61;62.33;99961.27;1588382;90;21017;-77
2021/07/15 04:47:38;;;;;;;22.95;13.38;;;;;;;25.59;62.40;99941.72;1588634;90;21087;-77
2021/07/15 04:50:07;;;;;;;26.50;14.45;;;;;;;25.60;62.48;99949.31;1571082;90;21091;-78
2021/07/15 04:52:34;;;;;;;127.90;18.60;;;;;;;25.57;62.51;99956.06;1588437;90;21059;-79
2021/07/15 04:55:01;;;;;;;27.77;14.35;;;;;;;25.55;62.71;99954.67;1588171;90;21076;-78
2021/07/15 04:57:28;;;;;;;23.75;14.20;;;;;;;25.55;62.79;99955.52;1588353;90;21101;-78
2021/07/15 04:59:54;;;;;;;23.65;15.08;;;;;;;25.52;63.04;99954.69;1588433;90;21035;-76
2021/07/15 05:02:23;;;;;;;25.40;15.35;;;;;;;25.48;63.40;99948.67;1588344;90;21530;-78
2021/07/15 05:04:49;;;;;;;32.03;16.40;;;;;;;25.38;64.72;99933.16;1588519;90;21023;-78
2021/07/15 05:07:15;;;;;;;24.18;14.13;;;;;;;25.34;64.58;99922.54;1588268;90;21914;-77
2021/07/15 05:09:41;;;;;;;21.02;13.45;;;;;;;25.28;65.09;99927.63;1588491;90;21031;-77
2021/07/15 05:12:09;;;;;;;20.77;13.65;;;;;;;25.20;65.24;99932.97;1588248;90;21030;-77
2021/07/15 05:14:41;;;;;;;24.55;13.72;;;;;;;25.19;65.32;99966.00;1588425;90;21011;-80
2021/07/15 05:17:03;;;;;;;17.00;12.55;;;;;;;25.14;65.66;99967.30;1585388;90;21543;-80
2021/07/15 05:19:30;;;;;;;16.07;12.35;;;;;;;25.03;67.26;99961.48;1588830;90;21027;-79
2021/07/15 05:21:58;;;;;;;19.17;13.03;;;;;;;24.98;67.18;99970.91;1588295;90;21079;-77
2021/07/15 05:24:24;;;;;;;17.17;12.78;;;;;;;24.97;67.24;99982.78;1588641;90;21514;-81
2021/07/15 05:26:50;;;;;;;24.87;13.62;;;;;;;24.92;67.50;99980.85;1588693;90;21151;-82
2021/07/15 05:29:17;;;;;;;17.37;12.45;;;;;;;24.90;67.95;99968.64;1588404;90;21150;-83
2021/07/15 05:31:43;;;;;;;21.27;13.60;;;;;;;24.87;68.19;99974.02;1611948;88;21055;-84
2021/07/15 05:34:09;;;;;;;17.60;13.13;;;;;;;24.88;68.21;99966.71;1608289;89;21475;-82
2021/07/15 05:36:36;;;;;;;20.08;12.82;;;;;;;24.80;68.78;99958.53;1608347;88;20984;-81
2021/07/15 05:39:03;;;;;;;18.65;13.48;;;;;;;24.86;68.67;99968.34;1608072;89;21063;-81
2021/07/15 05:41:29;;;;;;;15.25;12.30;;;;;;;24.92;69.56;99958.39;1608434;88;21023;-84
2021/07/15 05:43:55;;;;;;;17.75;12.58;;;;;;;25.03;69.00;99954.72;1608423;89;21533;-78
2021/07/15 05:46:22;;;;;;;18.05;13.08;;;;;;;25.11;68.79;99964.26;1607220;88;21575;-82
2021/07/15 05:48:48;;;;;;;21.00;14.00;;;;;;;25.19;68.69;99963.30;1595250;89;21054;-80
2021/07/15 05:51:14;;;;;;;22.58;14.50;;;;;;;25.30;68.42;99955.28;1591540;88;21063;-81
2021/07/15 05:53:40;;;;;;;20.20;12.10;;;;;;;25.37;68.25;99944.50;1597451;88;21576;-81
2021/07/15 05:56:07;;;;;;;25.35;12.68;;;;;;;25.42;68.01;99941.03;1581381;89;21100;-84
2021/07/15 05:58:33;;;;;;;16.77;12.95;;;;;;;25.49;68.17;99940.30;1604054;89;21054;-82
2021/07/15 06:00:59;;;;;;;16.05;13.03;;;;;;;25.59;68.17;99939.02;1608467;89;21056;-78
2021/07/15 06:03:25;;;;;;;114.82;16.00;;;;;;;25.65;68.07;99943.94;1608444;89;21020;-81
2021/07/15 06:05:51;;;;;;;19.30;13.22;;;;;;;25.63;67.82;99959.09;1608445;88;21000;-80
2021/07/15 06:08:18;;;;;;;18.20;12.53;;;;;;;25.64;67.53;99972.94;1608305;89;21515;-80
2021/07/15 06:10:44;;;;;;;19.20;11.95;;;;;;;25.70;67.22;99983.28;1607934;89;21448;-81
2021/07/15 06:13:13;;;;;;;22.10;13.53;;;;;;;25.80;67.29;99980.64;1606672;89;21014;-81
2021/07/15 06:15:40;;;;;;;21.52;11.88;;;;;;;25.95;67.08;99981.86;1578631;91;21143;-87
2021/07/15 06:18:07;;;;;;;16.77;13.48;;;;;;;26.08;66.30;99990.38;1578480;91;21083;-81
2021/07/15 06:20:33;;;;;;;20.23;13.83;;;;;;;26.23;65.87;99998.33;1578677;91;21003;-83
2021/07/15 06:23:00;;;;;;;19.32;13.32;;;;;;;26.26;65.54;99992.38;1578691;91;20992;-78
2021/07/15 06:25:26;;;;;;;18.10;12.47;;;;;;;26.31;65.21;99988.34;1578711;91;21075;-85
2021/07/15 06:27:54;;;;;;;16.95;12.95;;;;;;;26.37;64.72;99986.48;1578695;91;21107;-84
2021/07/15 06:30:21;;;;;;;17.42;12.37;;;;;;;26.38;64.46;99988.11;1576167;91;21107;-85
2021/07/15 06:32:47;;;;;;;18.02;11.73;;;;;;;26.41;64.52;99981.61;1570049;91;21062;-85
2021/07/15 06:35:17;;;;;;;18.12;12.07;;;;;;;26.46;64.56;99972.14;1569724;91;21094;-83
2021/07/15 06:37:47;;;;;;;17.98;13.58;;;;;;;26.34;64.73;99987.83;1570222;91;21038;-83
2021/07/15 06:40:14;;;;;;;28.98;13.85;;;;;;;26.32;64.94;99995.40;1569634;90;22258;-83
2021/07/15 06:42:40;;;;;;;20.50;13.70;;;;;;;26.17;66.26;100000.19;1569992;91;21043;-82
2021/07/15 06:45:09;;;;;;;24.15;12.95;;;;;;;26.13;66.85;99979.30;1569799;91;21022;-81
2021/07/15 06:47:37;;;;;;;27.07;15.48;;;;;;;25.93;68.09;99980.78;1569946;91;21099;-81
2021/07/15 06:50:07;;;;;;;22.40;13.75;;;;;;;25.69;67.84;99983.52;1569908;91;21554;-81
2021/07/15 06:52:35;;;;;;;21.05;14.85;;;;;;;25.50;69.75;99978.50;1570242;91;21085;-81
2021/07/15 06:55:02;;;;;;;20.17;14.65;;;;;;;25.47;69.99;99979.02;1569796;91;21042;-76
2021/07/15 06:57:29;;;;;;;19.32;14.63;;;;;;;25.52;70.57;99974.16;1569743;91;21106;-81
2021/07/15 06:59:56;;;;;;;26.42;15.32;;;;;;;25.72;70.71;99977.58;1569904;91;21034;-81
2021/07/15 07:02:24;;;;;;;13.58;12.28;;;;;;;26.05;70.35;99975.98;1569699;91;21054;-81
2021/07/15 07:04:50;;;;;;;21.35;13.60;;;;;;;26.26;68.75;99970.69;1569895;91;21055;-81
2021/07/15 07:07:17;;;;;;;28.07;14.98;;;;;;;26.44;68.43;99966.70;1569648;91;21087;-81
2021/07/15 07:09:43;;;;;;;23.18;14.00;;;;;;;26.68;68.03;99969.84;1569961;91;21034;-80
2021/07/15 07:12:09;;;;;;;18.65;13.98;;;;;;;26.82;67.41;99975.06;1569792;91;21135;-81
2021/07/15 07:14:36;;;;;;;19.85;15.32;;;;;;;26.95;66.99;99977.26;1569872;91;21590;-81
2021/07/15 07:17:02;;;;;;;24.90;15.78;;;;;;;26.94;66.57;99983.78;1569701;91;21059;-78
2021/07/15 07:19:28;;;;;;;20.75;15.03;;;;;;;26.91;66.55;99978.89;1569969;91;21038;-81
2021/07/15 07:21:55;;;;;;;22.15;14.13;;;;;;;26.92;66.79;99972.36;1569991;91;21071;-81
2021/07/15 07:24:21;;;;;;;20.10;14.35;;;;;;;26.88;66.87;99971.28;1569676;91;21557;-81
2021/07/15 07:26:47;;;;;;;18.20;14.63;;;;;;;26.80;67.18;99974.50;1569950;91;21125;-81
2021/07/15 07:29:14;;;;;;;24.15;15.23;;;;;;;26.83;67.16;99969.09;1569536;91;21066;-81
2021/07/15 07:31:40;;;;;;;25.40;14.00;;;;;;;26.88;66.90;99975.35;1575899;90;21128;-81
2021/07/15 07:34:06;;;;;;;19.92;14.73;;;;;;;26.93;66.97;99984.03;1578648;91;21515;-80
2021/07/15 07:36:32;;;;;;;23.25;15.10;;;;;;;27.02;66.78;99990.61;1578710;91;21136;-81
2021/07/15 07:38:59;;;;;;;14.73;13.15;;;;;;;27.20;66.89;99987.96;1578798;91;21099;-82
2021/07/15 07:41:25;;;;;;;21.50;14.10;;;;;;;27.49;66.43;99983.39;1578567;91;21405;-79
2021/07/15 07:43:51;;;;;;;20.70;14.20;;;;;;;27.67;65.57;99993.72;1578872;91;21496;-85
2021/07/15 07:46:18;;;;;;;20.37;14.45;;;;;;;27.75;64.34;99996.45;1581821;88;21056;-85
2021/07/15 07:48:44;;;;;;;19.25;13.05;;;;;;;27.85;64.38;100024.49;1602615;89;21110;-76
2021/07/15 07:51:10;;;;;;;20.27;13.90;;;;;;;27.93;63.62;100022.30;1602592;88;21069;-80
2021/07/15 07:53:36;;;;;;;19.10;13.38;;;;;;;28.01;64.13;100013.59;1602587;89;21629;-78
2021/07/15 07:56:03;;;;;;;23.73;14.30;;;;;;;28.10;63.82;100011.41;1602510;88;21062;-75
2021/07/15 07:58:29;;;;;;;18.70;14.60;;;;;;;28.08;63.24;100004.60;1602493;89;21102;-82
2021/07/15 08:00:55;;;;;;;20.57;13.53;;;;;;;28.11;63.47;99994.56;1602890;89;20978;-78
2021/07/15 08:03:22;;;;;;;16.37;13.40;;;;;;;28.13;63.60;99996.44;1602666;89;21065;-77
2021/07/15 08:05:48;;;;;;;20.12;14.55;;;;;;;28.12;63.59;99985.30;1602577;89;21148;-77
2021/07/15 08:08:18;;;;;;;21.37;14.38;;;;;;;28.10;62.90;99987.47;1602686;88;21098;-78
2021/07/15 08:10:44;;;;;;;15.65;13.88;;;;;;;28.12;62.91;99989.38;1602862;89;21138;-77
2021/07/15 08:13:10;;;;;;;20.70;15.85;;;;;;;28.16;62.77;99988.28;1602758;89;20995;-77
2021/07/15 08:15:37;;;;;;;22.02;14.60;;;;;;;28.15;62.88;99984.75;1603080;89;21022;-78
2021/07/15 08:18:03;;;;;;;19.90;13.93;;;;;;;28.08;62.28;99982.32;1607613;89;21084;-79
2021/07/15 08:20:30;;;;;;;22.55;15.32;;;;;;;28.08;62.21;99985.05;1608278;89;21508;-79
2021/07/15 08:22:56;;;;;;;17.42;14.73;;;;;;;28.12;62.55;99986.66;1608313;88;21468;-79
2021/07/15 08:25:23;;;;;;;18.00;15.10;;;;;;;28.11;62.49;99983.13;1608154;88;21077;-79
2021/07/15 08:27:50;;;;;;;17.70;15.18;;;;;;;28.04;61.78;99994.02;1608352;88;21104;-79
2021/07/15 08:30:19;;;;;;;16.97;15.15;;;;;;;27.99;62.04;99985.30;1608036;88;21517;-78
2021/07/15 08:32:45;;;;;;;23.62;15.48;;;;;;;28.03;62.26;99993.75;1590414;90;21028;-79
2021/07/15 08:35:12;;;;;;;18.42;14.40;;;;;;;28.06;62.11;99994.56;1590299;90;21040;-82
2021/07/15 08:37:38;;;;;;;20.75;16.40;;;;;;;27.90;61.83;99995.11;1590371;90;21083;-80
2021/07/15 08:40:06;;;;;;;21.60;15.80;;;;;;;28.02;62.01;99997.54;1590509;90;21551;-77
2021/07/15 08:42:33;;;;;;;24.43;16.40;;;;;;;28.00;62.15;99996.47;1590296;90;21048;-79
2021/07/15 08:45:04;;;;;;;24.25;16.97;;;;;;;27.96;62.33;99993.20;1590420;90;21543;-80
2021/07/15 08:47:31;;;;;;;18.77;15.95;;;;;;;28.14;62.62;99995.38;1590280;89;21024;-80
2021/07/15 08:49:57;;;;;;;27.35;16.55;;;;;;;28.52;62.90;99991.77;1590642;90;21017;-80
2021/07/15 08:52:24;;;;;;;19.67;15.85;;;;;;;28.81;61.18;99988.39;1590237;90;21000;-82
2021/07/15 08:55:02;;;;;;;17.90;15.35;;;;;;;29.12;60.79;99983.64;1590442;90;21550;-82
2021/07/15 08:57:28;;;;;;;17.32;14.18;;;;;;;29.16;59.86;99986.86;1590100;90;21995;-81
2021/07/15 08:59:55;;;;;;;23.80;17.07;;;;;;;29.32;59.22;99986.75;1590562;90;21075;-82
2021/07/15 09:02:23;;;;;;;18.75;14.35;;;;;;;29.51;59.22;99994.53;1590604;90;21573;-79
2021/07/15 09:04:51;;;;;;;19.25;14.05;;;;;;;29.56;58.33;99997.23;1590660;90;21028;-79
2021/07/15 09:07:18;;;;;;;15.58;13.60;;;;;;;29.74;58.69;99992.22;1572566;90;21094;-79
2021/07/15 09:09:46;;;;;;;16.32;14.53;;;;;;;29.68;57.04;99996.34;1601682;90;20955;-80
2021/07/15 09:12:13;;;;;;;19.25;13.70;;;;;;;29.66;57.43;100005.38;1601437;89;21557;-80
2021/07/15 09:14:55;;;;;;;16.90;13.05;;;;;;;29.72;57.48;99998.50;1601744;89;21561;-80
2021/07/15 09:17:31;;;;;;;13.93;11.57;;;;;;;29.87;56.69;99995.66;1601493;90;21038;-80
2021/07/15 09:19:58;;;;;;;18.57;12.37;;;;;;;30.18;56.84;99991.25;1601789;90;21078;-80
2021/07/15 09:22:24;;;;;;;19.98;11.70;;;;;;;30.39;56.22;99983.72;1601077;89;21050;-78
2021/07/15 09:24:51;;;;;;;17.10;11.85;;;;;;;30.44;55.51;99987.20;1601655;90;21057;-78
2021/07/15 09:27:25;;;;;;;12.93;10.95;;;;;;;30.39;54.62;99979.06;1601069;89;21086;-80
2021/07/15 09:30:12;;;;;;;15.20;12.10;;;;;;;30.30;54.76;99976.72;1601217;89;21050;-78
2021/07/15 09:33:02;;;;;;;15.90;11.70;;;;;;;30.43;55.39;99976.00;1608807;88;21116;-79
2021/07/15 09:35:38;;;;;;;17.42;11.50;;;;;;;30.58;54.65;99973.64;1610494;89;21913;-79
2021/07/15 09:38:11;;;;;;;15.88;11.88;;;;;;;30.73;53.92;99968.56;1605190;89;20995;-79
2021/07/15 09:40:46;;;;;;;19.02;11.45;;;;;;;30.77;53.76;99973.13;1602465;88;22174;-79
2021/07/15 09:43:22;;;;;;;18.98;12.25;;;;;;;30.54;52.17;99982.16;1573974;91;21053;-79
2021/07/15 09:45:53;;;;;;;16.97;11.75;;;;;;;30.63;53.36;99980.97;1585946;90;21518;-80
2021/07/15 09:48:26;;;;;;;16.55;10.98;;;;;;;30.71;53.37;99983.05;1599432;89;21004;-79
2021/07/15 09:50:57;;;;;;;15.40;11.22;;;;;;;30.88;51.65;99979.88;1599774;89;21053;-80
2021/07/15 09:53:30;;;;;;;16.32;11.03;;;;;;;30.89;51.49;99983.66;1599546;89;21012;-79
2021/07/15 09:56:17;;;;;;;14.00;10.08;;;;;;;30.91;50.51;99989.65;1598342;89;21045;-79
2021/07/15 09:58:49;;;;;;;22.73;10.75;;;;;;;30.82;49.75;99990.05;1597387;90;21122;-79
2021/07/15 10:01:21;;;;;;;15.10;9.75;;;;;;;30.94;50.10;99994.52;1596595;90;21080;-80
2021/07/15 10:03:51;;;;;;;18.12;10.68;;;;;;;31.02;49.38;99991.14;1588767;88;21517;-79
2021/07/15 10:06:19;;;;;;;14.50;8.80;;;;;;;30.98;49.01;99988.72;1592309;90;21046;-79
2021/07/15 10:08:48;;;;;;;13.32;8.75;;;;;;;31.00;49.08;99996.08;1593613;88;21077;-79
2021/07/15 10:11:17;;;;;;;;;;;;;;;30.88;48.59;99991.61;1599770;89;21047;-79
2021/07/15 10:13:47;;;;;;;22.85;9.40;;;;;;;30.89;46.96;99990.48;1602585;89;20177;-79
2021/07/15 10:16:13;;;;;;;19.87;8.90;;;;;;;30.78;48.42;99993.06;1594327;89;21062;-79
2021/07/15 10:18:52;;;;;;;15.50;7.62;;;;;;;30.78;47.30;99993.06;1584589;90;21066;-80
2021/07/15 10:21:18;;;;;;;20.92;8.28;;;;;;;30.76;47.29;99992.00;1572417;91;21103;-79
2021/07/15 10:23:51;;;;;;;11.05;7.47;;;;;;;30.66;46.54;99992.67;1575194;90;21045;-79
2021/07/15 10:26:14;;;;;;;;;;;;;;;30.56;45.36;99991.70;1576006;90;21101;-79
2021/07/15 10:28:46;;;;;;;17.27;9.00;;;;;;;30.53;46.60;99999.66;1595480;90;20186;-79
2021/07/15 10:31:14;;;;;;;14.68;7.72;;;;;;;30.57;46.33;100000.69;1596939;89;21676;-78
2021/07/15 10:33:42;;;;;;;17.30;8.28;;;;;;;30.61;47.05;100003.09;1583451;88;21048;-79
2021/07/15 10:36:10;;;;;;;16.40;8.05;;;;;;;30.72;46.69;99997.77;1624619;88;21103;-79
2021/07/15 10:38:43;;;;;;;15.98;8.38;;;;;;;30.83;46.35;100008.61;1606916;89;21075;-79
2021/07/15 10:41:11;;;;;;;10.20;8.73;;;;;;;30.86;46.41;100006.66;1606859;88;21062;-78
2021/07/15 10:43:39;;;;;;;22.05;8.63;;;;;;;30.83;47.86;100008.05;1606957;89;21117;-78
2021/07/15 10:46:06;;;;;;;18.70;8.30;;;;;;;30.80;48.24;100004.55;1607213;88;21073;-79
2021/07/15 10:48:36;;;;;;;11.65;8.75;;;;;;;30.83;48.36;100003.95;1606981;89;21551;-79
2021/07/15 10:51:04;;;;;;;13.20;8.20;;;;;;;30.83;48.34;100009.42;1594445;89;21063;-78
2021/07/15 10:53:35;;;;;;;16.87;8.28;;;;;;;30.67;49.07;100007.94;1589236;89;21039;-79
2021/07/15 10:56:03;;;;;;;17.87;9.30;;;;;;;30.69;48.89;100001.09;1596959;89;21023;-79
2021/07/15 10:58:48;;;;;;;18.40;8.45;;;;;;;30.77;49.09;99995.54;1592405;89;21007;-79
2021/07/15 11:01:42;;;;;;;19.98;8.73;;;;;;;30.98;49.37;99996.91;1616668;88;21013;-78
2021/07/15 11:04:15;;;;;;;16.62;9.50;;;;;;;31.47;48.87;99998.42;1633050;88;21095;-79
2021/07/15 11:06:46;;;;;;;17.62;10.70;;;;;;;31.97;47.65;99992.45;1632579;86;21479;-79
2021/07/15 11:09:33;;;;;;;13.93;9.18;;;;;;;32.29;47.28;99992.95;1617345;87;21068;-79
2021/07/15 11:12:02;;;;;;;17.10;10.72;;;;;;;32.42;46.73;99997.37;1591991;89;21099;-79
2021/07/15 11:14:37;;;;;;;;;;;;;;;32.51;46.48;99995.03;1602526;89;21118;-79
2021/07/15 11:17:25;;;;;;;10.95;8.80;;;;;;;32.55;45.45;99995.23;1578545;89;20127;-79
2021/07/15 11:20:11;;;;;;;15.45;9.33;;;;;;;32.57;46.68;99992.97;1577101;89;21051;-79
2021/07/15 11:22:57;;;;;;;14.40;9.08;;;;;;;32.76;46.50;99996.98;1625147;88;21031;-79
2021/07/15 11:25:35;;;;;;;12.05;9.50;;;;;;;32.87;45.91;99990.73;1625403;88;21066;-78
2021/07/15 11:28:14;;;;;;;15.37;9.67;;;;;;;32.94;45.77;99997.97;1590568;89;21075;-78
2021/07/15 11:30:45;;;;;;;14.77;10.00;;;;;;;32.91;45.76;99991.16;1602006;89;21063;-77